Ilyas Efendiyev — 9HES8 — position and weather

sailwx.info

Track history (hours):
 
Tides and Currents Weather Stations Pressure Air Temp Water Temp Dewpoint Dewpoint Depression Visibility Wind Speed Wind Dir Waves Ship Positions

Ilyas Efendiyev

Last reported at 2015-Jan-23 11:32 UTC. Time now 2015-Jan-25 16:14 UTC.
Position N 39°08' W 009°50'.

Length 140 m; draft 4.7 m.

Type: Cargo ship. MMSI: 215901000.

Date/timePositionNaut miles runAvg speedWind from/ knotsBaromVisibWave heightAir tempDewpointWater temp
2015-Jan-23 11:32N 39°08' W 009°50'6 6.6
2015-Jan-23 10:34N 39°02' W 009°50'6 6.2
2015-Jan-23 09:31N 38°55' W 009°51'6 6.0
2015-Jan-23 08:33N 38°50' W 009°50'6 6.1
2015-Jan-23 07:33N 38°43' W 009°50'6 6.6
2015-Jan-23 06:34N 38°37' W 009°49'7 6.9
2015-Jan-23 05:33N 38°30' W 009°47'23 6.8
2015-Jan-23 02:13N 38°08' W 009°38'4 6.6
2015-Jan-23 01:33N 38°04' W 009°37'18 6.0
2015-Jan-22 22:33N 37°47' W 009°32'224 5.7
2015-Jan-21 07:10N 36°01' W 005°26'3 5.1
2015-Jan-21 06:33N 36°01' W 005°22'6 5.9
2015-Jan-21 05:33N 36°02' W 005°15'  
2015-Jan-16 04:34N 36°34' E 012°53'10 9.7
2015-Jan-16 03:33N 36°28' E 013°03'11 9.7
2015-Jan-16 02:23N 36°23' E 013°15'10 9.8
2015-Jan-16 01:25N 36°17' E 013°25'910.2
2015-Jan-16 00:34N 36°12' E 013°34'1010.1
2015-Jan-15 23:34N 36°07' E 013°45'12 9.7
2015-Jan-15 22:17N 36°00' E 013°57'910.2
2015-Jan-15 21:21N 35°55' E 014°07'24 8.3
2015-Jan-15 18:29N 35°49' E 014°36'  
Track history (hours):
 
Tides and Currents Weather Stations Pressure Air Temp Water Temp Dewpoint Dewpoint Depression Visibility Wind Speed Wind Dir Waves Ship Positions

Ilyas Efendiyev

Last reported at 2015-Jan-23 11:32 UTC. Time now 2015-Jan-25 16:14 UTC.
Position N 39°08' W 009°50'.

Length 140 m; draft 4.7 m.

Type: Cargo ship. MMSI: 215901000.

Date/timePositionNaut miles runAvg speedWind from/ knotsBaromVisibWave heightAir tempDewpointWater temp
2015-Jan-23 11:32N 39°08' W 009°50'6 6.6
2015-Jan-23 10:34N 39°02' W 009°50'6 6.2
2015-Jan-23 09:31N 38°55' W 009°51'6 6.0
2015-Jan-23 08:33N 38°50' W 009°50'6 6.1
2015-Jan-23 07:33N 38°43' W 009°50'6 6.6
2015-Jan-23 06:34N 38°37' W 009°49'7 6.9
2015-Jan-23 05:33N 38°30' W 009°47'23 6.8
2015-Jan-23 02:13N 38°08' W 009°38'4 6.6
2015-Jan-23 01:33N 38°04' W 009°37'18 6.0
2015-Jan-22 22:33N 37°47' W 009°32'224 5.7
2015-Jan-21 07:10N 36°01' W 005°26'3 5.1
2015-Jan-21 06:33N 36°01' W 005°22'6 5.9
2015-Jan-21 05:33N 36°02' W 005°15'  
2015-Jan-16 04:34N 36°34' E 012°53'10 9.7
2015-Jan-16 03:33N 36°28' E 013°03'11 9.7
2015-Jan-16 02:23N 36°23' E 013°15'10 9.8
2015-Jan-16 01:25N 36°17' E 013°25'910.2
2015-Jan-16 00:34N 36°12' E 013°34'1010.1
2015-Jan-15 23:34N 36°07' E 013°45'12 9.7
2015-Jan-15 22:17N 36°00' E 013°57'910.2
2015-Jan-15 21:21N 35°55' E 014°07'24 8.3
2015-Jan-15 18:29N 35°49' E 014°36'  

Dump ship's entire track history